PPS weather

Puerto Princesa Airport
Puerto Princesa City, Palawan Province, Philippines

Public forecast

Using degrees Celsius for public forecast. Weather courtesy of forecast.io.

Current aviation weather report (METAR) for Puerto Princesa Airport

Report is more than 6 hours old.

Retrieved 2020/07/14 05:00 UTC (21 days ago):

RPVP 140500Z 18006KT 9999 FEW019TCU BKN240 32/24 Q1009 RMK A2980

Aviation forecast (TAF) for Puerto Princesa Airport

Forecast is more than 12 hours old.

Retrieved 2020/07/14 06:04 UTC (21 days ago):

TAF RPVP 140500Z 1406/1506 18004KT 9999 FEW019 BKN240 TEMPO 1406/1412 14006KT -SHRA FEW017CB FEW019 BKN240 TEMPO 1412/1418 20006KT